Potisje — YT2187 — position and weather

sailwx.info

Track history (hours):
 
Tides and Currents Weather Stations Pressure Air Temp Water Temp Dewpoint Dewpoint Depression Visibility Wind Speed Wind Dir Waves Ship Positions

Potisje

Last reported at 2017-Nov-27 17:31 UTC. Time now 2017-Dec-15 04:20 UTC.
Position N 45°35' E 020°05'.
Warning: this ship's position is 17 days out of date.

Length 70 m; draft 2.1 m.

Type: Cargo ship. MMSI: 279202187.

Date/timePositionNaut miles runAvg speedWind from/ knotsBaromVisibWave heightAir tempDewpointWater temp
2017-Nov-27 17:31N 45°35' E 020°05'0 2.1
2017-Nov-27 17:28N 45°35' E 020°05'1 3.0
2017-Nov-27 16:59N 45°36' E 020°07'1 1.3
2017-Nov-27 15:56N 45°34' E 020°07'1 2.3
2017-Nov-27 15:28N 45°33' E 020°06'2 2.7
2017-Nov-27 14:52N 45°32' E 020°06'1 2.8
2017-Nov-27 14:31N 45°31' E 020°07'2 2.8
2017-Nov-27 13:50N 45°29' E 020°09'2 3.1
2017-Nov-27 13:12N 45°28' E 020°11'2 2.7
2017-Nov-27 12:31N 45°27' E 020°13'0 0.3
2017-Nov-27 12:30N 45°27' E 020°13'2 2.8
2017-Nov-27 11:51N 45°25' E 020°13'1 3.0
2017-Nov-27 11:31N 45°24' E 020°13'2 3.3
2017-Nov-27 10:57N 45°22' E 020°13'1 2.0
2017-Nov-27 10:30N 45°22' E 020°14'2 2.9
2017-Nov-27 09:41N 45°20' E 020°16'1 2.8
2017-Nov-27 09:31N 45°20' E 020°15'5 2.4
2017-Nov-27 07:15N 45°15' E 020°18'1 2.7
2017-Nov-27 07:00N 45°14' E 020°18'1 2.8
2017-Nov-27 06:30N 45°13' E 020°19'1 2.7
2017-Nov-27 06:01N 45°11' E 020°19'1 0.1
2017-Nov-26 21:23N 45°11' E 020°18'1 1.7
2017-Nov-26 20:53N 45°10' E 020°17'1 2.5
2017-Nov-26 20:30N 45°09' E 020°17'1 2.5
2017-Nov-26 20:00N 45°08' E 020°17'1 1.9
2017-Nov-26 19:29N 45°07' E 020°17'1 2.3
2017-Nov-26 19:00N 45°06' E 020°18'1 1.8
2017-Nov-26 18:30N 45°05' E 020°19'1 2.2
2017-Nov-26 18:00N 45°05' E 020°20'1 2.2
2017-Nov-26 17:30N 45°04' E 020°21'1 2.2
2017-Nov-26 17:01N 45°03' E 020°21'1 2.4
2017-Nov-26 16:31N 45°02' E 020°22'1 2.3
2017-Nov-26 16:01N 45°01' E 020°22'1 2.4
2017-Nov-26 15:31N 45°00' E 020°20'1 2.8
2017-Nov-26 15:00N 44°59' E 020°18'1 2.6
2017-Nov-26 14:30N 44°58' E 020°17'1 2.7
2017-Nov-26 14:00N 44°57' E 020°18'1 2.8
2017-Nov-26 13:31N 44°56' E 020°19'1 2.5
2017-Nov-26 13:01N 44°55' E 020°20'1 2.5
2017-Nov-26 12:30N 44°54' E 020°21'1 2.4
2017-Nov-26 12:01N 44°53' E 020°22'1 2.5
2017-Nov-26 11:31N 44°52' E 020°23'1 2.7
2017-Nov-26 11:01N 44°51' E 020°25'1 2.7
2017-Nov-26 10:31N 44°51' E 020°26'1 2.6
2017-Nov-26 10:01N 44°50' E 020°28'1 2.6
2017-Nov-26 09:30N 44°50' E 020°30'1 2.0
2017-Nov-26 09:00N 44°49' E 020°31'0 0.0
2017-Nov-26 08:31N 44°49' E 020°31'1 1.1
2017-Nov-26 08:01N 44°50' E 020°32'0 0.3
2017-Nov-26 07:30N 44°50' E 020°32'1 2.5
2017-Nov-26 07:00N 44°50' E 020°33'1 2.8
2017-Nov-26 06:31N 44°51' E 020°35'1 2.7
2017-Nov-26 06:01N 44°51' E 020°37'1 2.7
2017-Nov-26 05:31N 44°50' E 020°38'1 2.7
2017-Nov-26 05:01N 44°49' E 020°38'2 3.0
2017-Nov-26 04:31N 44°47' E 020°38'1 1.4
2017-Nov-26 04:00N 44°47' E 020°38'0 0.0
2017-Nov-26 03:30N 44°47' E 020°38'0 0.0
2017-Nov-26 03:00N 44°47' E 020°38'0 0.0
2017-Nov-26 02:30N 44°47' E 020°38'0 0.0
2017-Nov-26 02:00N 44°47' E 020°38'0 0.0
2017-Nov-26 01:30N 44°47' E 020°38'0 0.0
2017-Nov-26 01:00N 44°47' E 020°38'0 0.0
2017-Nov-26 00:31N 44°47' E 020°38'0 0.0
2017-Nov-26 00:00N 44°47' E 020°38'0 0.0
2017-Nov-25 23:31N 44°47' E 020°38'0 0.0
2017-Nov-25 23:00N 44°47' E 020°38'0 0.0
2017-Nov-25 22:31N 44°47' E 020°38'0 0.7
2017-Nov-25 22:01N 44°46' E 020°38'1 2.8
2017-Nov-25 21:31N 44°45' E 020°39'1 2.9
2017-Nov-25 21:01N 44°44' E 020°40'2 3.0
2017-Nov-25 20:31N 44°43' E 020°41'2 3.0
2017-Nov-25 20:01N 44°42' E 020°43'1 2.9
2017-Nov-25 19:31N 44°41' E 020°44'2 3.1
2017-Nov-25 19:00N 44°40' E 020°46'2 3.2
2017-Nov-25 18:30N 44°40' E 020°48'2 3.0
2017-Nov-25 18:01N 44°40' E 020°50'2 3.1
2017-Nov-25 17:30N 44°40' E 020°52'2 3.0
2017-Nov-25 17:00N 44°40' E 020°54'0 1.0
2017-Nov-25 16:30N 44°40' E 020°55'0 0.0
2017-Nov-25 16:01N 44°40' E 020°55'0 0.8
2017-Nov-25 15:30N 44°40' E 020°56'1 2.7
2017-Nov-25 15:00N 44°41' E 020°57'1 2.9
2017-Nov-25 14:30N 44°42' E 020°58'1 2.9
2017-Nov-25 14:00N 44°43' E 020°60'5 0.8
2017-Nov-25 08:10N 44°45' E 021°06'0 0.0
2017-Nov-25 07:58N 44°45' E 021°06'1 0.7
2017-Nov-25 06:28N 44°43' E 021°06'2 5.2
2017-Nov-25 06:00N 44°43' E 021°03'3 5.3
2017-Nov-25 05:28N 44°43' E 020°59'0 0.1
2017-Nov-25 02:14N 44°42' E 020°59'0 0.0
2017-Nov-25 01:57N 44°42' E 020°59'0 0.0
2017-Nov-25 01:25N 44°42' E 020°59'0 0.0
2017-Nov-25 00:10N 44°42' E 020°59'0 0.0
2017-Nov-25 00:00N 44°42' E 020°59'0 0.0
2017-Nov-24 23:06N 44°42' E 020°59'0 0.0
2017-Nov-24 22:59N 44°42' E 020°59'0 0.0
2017-Nov-24 22:31N 44°42' E 020°59'1 2.8
2017-Nov-24 22:01N 44°42' E 020°57'3 5.6
2017-Nov-24 21:30N 44°40' E 020°54'3 5.9
2017-Nov-24 21:01N 44°39' E 020°50'3 5.9
2017-Nov-24 20:30N 44°40' E 020°46'3 5.7
2017-Nov-24 20:01N 44°42' E 020°43'3 5.6
2017-Nov-24 19:31N 44°44' E 020°40'3 5.5
2017-Nov-24 19:01N 44°46' E 020°38'3 5.5
2017-Nov-24 18:30N 44°49' E 020°38'3 5.1
2017-Nov-24 18:01N 44°51' E 020°38'3 5.4
2017-Nov-24 17:31N 44°51' E 020°34'3 5.4
2017-Nov-24 17:00N 44°50' E 020°30'3 5.6
2017-Nov-24 16:31N 44°50' E 020°26'3 5.7
2017-Nov-24 16:01N 44°52' E 020°23'3 5.6
2017-Nov-24 15:30N 44°54' E 020°21'3 5.9
2017-Nov-24 15:01N 44°56' E 020°18'3 5.7
2017-Nov-24 14:31N 44°59' E 020°18'3 5.7
2017-Nov-24 14:00N 45°00' E 020°21'3 5.6
2017-Nov-24 13:31N 45°03' E 020°21'3 6.2
2017-Nov-24 13:00N 45°06' E 020°18'3 5.8
2017-Nov-24 12:31N 45°08' E 020°17'2 4.7
2017-Nov-24 11:59N 45°11' E 020°17'2 4.5
2017-Nov-24 11:31N 45°12' E 020°19'7 5.0
2017-Nov-24 10:08N 45°19' E 020°15'0 1.8
2017-Nov-24 10:00N 45°19' E 020°15'2 3.7
2017-Nov-24 09:30N 45°21' E 020°16'3 4.8
2017-Nov-24 08:58N 45°22' E 020°13'2 4.6
2017-Nov-24 08:29N 45°24' E 020°13'2 4.7
2017-Nov-24 08:00N 45°27' E 020°13'3 5.0
2017-Nov-24 07:28N 45°28' E 020°10'5 5.7
2017-Nov-24 06:39N 45°32' E 020°06'1 3.3
2017-Nov-24 06:25N 45°33' E 020°06'2 2.9
2017-Nov-24 05:38N 45°35' E 020°08'0 0.2
2017-Nov-24 05:26N 45°35' E 020°08'0 0.0
2017-Nov-23 17:31N 45°35' E 020°08'0 0.0
2017-Nov-23 17:30N 45°35' E 020°08'0 0.0
2017-Nov-23 16:47N 45°35' E 020°08'0 0.0
2017-Nov-23 16:14N 45°35' E 020°08'0 0.0
2017-Nov-23 16:00N 45°35' E 020°08'0 0.0
2017-Nov-23 15:30N 45°35' E 020°08'1 2.5
2017-Nov-23 14:57N 45°36' E 020°06'  
2017-Nov-20 00:31N 44°51' E 020°37'0 0.0
2017-Nov-20 00:01N 44°51' E 020°37'0 0.0
2017-Nov-19 23:31N 44°51' E 020°37'0 0.0
2017-Nov-19 23:00N 44°51' E 020°37'0 0.3
2017-Nov-19 22:31N 44°51' E 020°37'1 2.7
2017-Nov-19 22:01N 44°50' E 020°39'1 2.4
2017-Nov-19 21:30N 44°49' E 020°38'1 2.8
2017-Nov-19 21:00N 44°47' E 020°38'1 2.5
2017-Nov-19 20:30N 44°46' E 020°38'1 2.7
2017-Nov-19 20:00N 44°45' E 020°39'4 2.7
2017-Nov-19 18:42N 44°42' E 020°42'1 2.7
2017-Nov-19 18:26N 44°42' E 020°43'10 2.5
2017-Nov-19 14:25N 44°42' E 020°57'3 2.9
2017-Nov-19 13:29N 44°43' E 021°00'5 0.2
2017-Nov-18 12:03N 44°45' E 021°06'0 0.0
2017-Nov-18 12:01N 44°45' E 021°06'0 0.2
2017-Nov-18 11:30N 44°45' E 021°07'3 2.7
2017-Nov-18 10:28N 44°43' E 021°03'3 5.7
2017-Nov-18 09:54N 44°43' E 020°59'4 2.0
2017-Nov-18 07:41N 44°40' E 020°54'1 5.7
2017-Nov-18 07:30N 44°40' E 020°53'1 2.5
2017-Nov-18 06:55N 44°39' E 020°51'6 5.0
2017-Nov-18 05:42N 44°42' E 020°43'3 5.6
2017-Nov-18 05:13N 44°44' E 020°41'1 5.5
2017-Nov-18 05:01N 44°45' E 020°39'3 5.2
2017-Nov-18 04:30N 44°47' E 020°38'1 2.2
2017-Nov-18 04:00N 44°48' E 020°38'0 0.0
2017-Nov-18 03:26N 44°48' E 020°38'0 0.0
2017-Nov-18 03:00N 44°48' E 020°38'0 0.0
2017-Nov-18 02:30N 44°48' E 020°38'0 0.0
2017-Nov-18 02:00N 44°48' E 020°38'0 0.0
2017-Nov-18 01:30N 44°48' E 020°38'0 0.0
2017-Nov-18 01:00N 44°48' E 020°38'0 0.0
2017-Nov-18 00:30N 44°48' E 020°38'0 0.0
2017-Nov-18 00:00N 44°48' E 020°38'0 0.0
2017-Nov-17 23:30N 44°48' E 020°38'0 0.0
2017-Nov-17 23:00N 44°48' E 020°38'1 1.9
2017-Nov-17 22:31N 44°49' E 020°38'3 5.3
2017-Nov-17 22:01N 44°51' E 020°37'3 5.8
2017-Nov-17 21:31N 44°51' E 020°33'3 5.6
2017-Nov-17 21:01N 44°50' E 020°30'3 5.7
2017-Nov-17 20:31N 44°51' E 020°26'3 6.0
2017-Nov-17 20:01N 44°52' E 020°22'3 5.8
2017-Nov-17 19:31N 44°55' E 020°20'3 6.2
2017-Nov-17 19:00N 44°57' E 020°18'3 5.4
2017-Nov-17 18:31N 44°60' E 020°19'3 5.6
2017-Nov-17 18:01N 45°02' E 020°22'  
Track history (hours):
 
Tides and Currents Weather Stations Pressure Air Temp Water Temp Dewpoint Dewpoint Depression Visibility Wind Speed Wind Dir Waves Ship Positions

Potisje

Last reported at 2017-Nov-27 17:31 UTC. Time now 2017-Dec-15 04:20 UTC.
Position N 45°35' E 020°05'.
Warning: this ship's position is 17 days out of date.

Length 70 m; draft 2.1 m.

Type: Cargo ship. MMSI: 279202187.

Date/timePositionNaut miles runAvg speedWind from/ knotsBaromVisibWave heightAir tempDewpointWater temp
2017-Nov-27 17:31N 45°35' E 020°05'0 2.1
2017-Nov-27 17:28N 45°35' E 020°05'1 3.0
2017-Nov-27 16:59N 45°36' E 020°07'1 1.3
2017-Nov-27 15:56N 45°34' E 020°07'1 2.3
2017-Nov-27 15:28N 45°33' E 020°06'2 2.7
2017-Nov-27 14:52N 45°32' E 020°06'1 2.8
2017-Nov-27 14:31N 45°31' E 020°07'2 2.8
2017-Nov-27 13:50N 45°29' E 020°09'2 3.1
2017-Nov-27 13:12N 45°28' E 020°11'2 2.7
2017-Nov-27 12:31N 45°27' E 020°13'0 0.3
2017-Nov-27 12:30N 45°27' E 020°13'2 2.8
2017-Nov-27 11:51N 45°25' E 020°13'1 3.0
2017-Nov-27 11:31N 45°24' E 020°13'2 3.3
2017-Nov-27 10:57N 45°22' E 020°13'1 2.0
2017-Nov-27 10:30N 45°22' E 020°14'2 2.9
2017-Nov-27 09:41N 45°20' E 020°16'1 2.8
2017-Nov-27 09:31N 45°20' E 020°15'5 2.4
2017-Nov-27 07:15N 45°15' E 020°18'1 2.7
2017-Nov-27 07:00N 45°14' E 020°18'1 2.8
2017-Nov-27 06:30N 45°13' E 020°19'1 2.7
2017-Nov-27 06:01N 45°11' E 020°19'1 0.1
2017-Nov-26 21:23N 45°11' E 020°18'1 1.7
2017-Nov-26 20:53N 45°10' E 020°17'1 2.5
2017-Nov-26 20:30N 45°09' E 020°17'1 2.5
2017-Nov-26 20:00N 45°08' E 020°17'1 1.9
2017-Nov-26 19:29N 45°07' E 020°17'1 2.3
2017-Nov-26 19:00N 45°06' E 020°18'1 1.8
2017-Nov-26 18:30N 45°05' E 020°19'1 2.2
2017-Nov-26 18:00N 45°05' E 020°20'1 2.2
2017-Nov-26 17:30N 45°04' E 020°21'1 2.2
2017-Nov-26 17:01N 45°03' E 020°21'1 2.4
2017-Nov-26 16:31N 45°02' E 020°22'1 2.3
2017-Nov-26 16:01N 45°01' E 020°22'1 2.4
2017-Nov-26 15:31N 45°00' E 020°20'1 2.8
2017-Nov-26 15:00N 44°59' E 020°18'1 2.6
2017-Nov-26 14:30N 44°58' E 020°17'1 2.7
2017-Nov-26 14:00N 44°57' E 020°18'1 2.8
2017-Nov-26 13:31N 44°56' E 020°19'1 2.5
2017-Nov-26 13:01N 44°55' E 020°20'1 2.5
2017-Nov-26 12:30N 44°54' E 020°21'1 2.4
2017-Nov-26 12:01N 44°53' E 020°22'1 2.5
2017-Nov-26 11:31N 44°52' E 020°23'1 2.7
2017-Nov-26 11:01N 44°51' E 020°25'1 2.7
2017-Nov-26 10:31N 44°51' E 020°26'1 2.6
2017-Nov-26 10:01N 44°50' E 020°28'1 2.6
2017-Nov-26 09:30N 44°50' E 020°30'1 2.0
2017-Nov-26 09:00N 44°49' E 020°31'0 0.0
2017-Nov-26 08:31N 44°49' E 020°31'1 1.1
2017-Nov-26 08:01N 44°50' E 020°32'0 0.3
2017-Nov-26 07:30N 44°50' E 020°32'1 2.5
2017-Nov-26 07:00N 44°50' E 020°33'1 2.8
2017-Nov-26 06:31N 44°51' E 020°35'1 2.7
2017-Nov-26 06:01N 44°51' E 020°37'1 2.7
2017-Nov-26 05:31N 44°50' E 020°38'1 2.7
2017-Nov-26 05:01N 44°49' E 020°38'2 3.0
2017-Nov-26 04:31N 44°47' E 020°38'1 1.4
2017-Nov-26 04:00N 44°47' E 020°38'0 0.0
2017-Nov-26 03:30N 44°47' E 020°38'0 0.0
2017-Nov-26 03:00N 44°47' E 020°38'0 0.0
2017-Nov-26 02:30N 44°47' E 020°38'0 0.0
2017-Nov-26 02:00N 44°47' E 020°38'0 0.0
2017-Nov-26 01:30N 44°47' E 020°38'0 0.0
2017-Nov-26 01:00N 44°47' E 020°38'0 0.0
2017-Nov-26 00:31N 44°47' E 020°38'0 0.0
2017-Nov-26 00:00N 44°47' E 020°38'0 0.0
2017-Nov-25 23:31N 44°47' E 020°38'0 0.0
2017-Nov-25 23:00N 44°47' E 020°38'0 0.0
2017-Nov-25 22:31N 44°47' E 020°38'0 0.7
2017-Nov-25 22:01N 44°46' E 020°38'1 2.8
2017-Nov-25 21:31N 44°45' E 020°39'1 2.9
2017-Nov-25 21:01N 44°44' E 020°40'2 3.0
2017-Nov-25 20:31N 44°43' E 020°41'2 3.0
2017-Nov-25 20:01N 44°42' E 020°43'1 2.9
2017-Nov-25 19:31N 44°41' E 020°44'2 3.1
2017-Nov-25 19:00N 44°40' E 020°46'2 3.2
2017-Nov-25 18:30N 44°40' E 020°48'2 3.0
2017-Nov-25 18:01N 44°40' E 020°50'2 3.1
2017-Nov-25 17:30N 44°40' E 020°52'2 3.0
2017-Nov-25 17:00N 44°40' E 020°54'0 1.0
2017-Nov-25 16:30N 44°40' E 020°55'0 0.0
2017-Nov-25 16:01N 44°40' E 020°55'0 0.8
2017-Nov-25 15:30N 44°40' E 020°56'1 2.7
2017-Nov-25 15:00N 44°41' E 020°57'1 2.9
2017-Nov-25 14:30N 44°42' E 020°58'1 2.9
2017-Nov-25 14:00N 44°43' E 020°60'5 0.8
2017-Nov-25 08:10N 44°45' E 021°06'0 0.0
2017-Nov-25 07:58N 44°45' E 021°06'1 0.7
2017-Nov-25 06:28N 44°43' E 021°06'2 5.2
2017-Nov-25 06:00N 44°43' E 021°03'3 5.3
2017-Nov-25 05:28N 44°43' E 020°59'0 0.1
2017-Nov-25 02:14N 44°42' E 020°59'0 0.0
2017-Nov-25 01:57N 44°42' E 020°59'0 0.0
2017-Nov-25 01:25N 44°42' E 020°59'0 0.0
2017-Nov-25 00:10N 44°42' E 020°59'0 0.0
2017-Nov-25 00:00N 44°42' E 020°59'0 0.0
2017-Nov-24 23:06N 44°42' E 020°59'0 0.0
2017-Nov-24 22:59N 44°42' E 020°59'0 0.0
2017-Nov-24 22:31N 44°42' E 020°59'1 2.8
2017-Nov-24 22:01N 44°42' E 020°57'3 5.6
2017-Nov-24 21:30N 44°40' E 020°54'3 5.9
2017-Nov-24 21:01N 44°39' E 020°50'3 5.9
2017-Nov-24 20:30N 44°40' E 020°46'3 5.7
2017-Nov-24 20:01N 44°42' E 020°43'3 5.6
2017-Nov-24 19:31N 44°44' E 020°40'3 5.5
2017-Nov-24 19:01N 44°46' E 020°38'3 5.5
2017-Nov-24 18:30N 44°49' E 020°38'3 5.1
2017-Nov-24 18:01N 44°51' E 020°38'3 5.4
2017-Nov-24 17:31N 44°51' E 020°34'3 5.4
2017-Nov-24 17:00N 44°50' E 020°30'3 5.6
2017-Nov-24 16:31N 44°50' E 020°26'3 5.7
2017-Nov-24 16:01N 44°52' E 020°23'3 5.6
2017-Nov-24 15:30N 44°54' E 020°21'3 5.9
2017-Nov-24 15:01N 44°56' E 020°18'3 5.7
2017-Nov-24 14:31N 44°59' E 020°18'3 5.7
2017-Nov-24 14:00N 45°00' E 020°21'3 5.6
2017-Nov-24 13:31N 45°03' E 020°21'3 6.2
2017-Nov-24 13:00N 45°06' E 020°18'3 5.8
2017-Nov-24 12:31N 45°08' E 020°17'2 4.7
2017-Nov-24 11:59N 45°11' E 020°17'2 4.5
2017-Nov-24 11:31N 45°12' E 020°19'7 5.0
2017-Nov-24 10:08N 45°19' E 020°15'0 1.8
2017-Nov-24 10:00N 45°19' E 020°15'2 3.7
2017-Nov-24 09:30N 45°21' E 020°16'3 4.8
2017-Nov-24 08:58N 45°22' E 020°13'2 4.6
2017-Nov-24 08:29N 45°24' E 020°13'2 4.7
2017-Nov-24 08:00N 45°27' E 020°13'3 5.0
2017-Nov-24 07:28N 45°28' E 020°10'5 5.7
2017-Nov-24 06:39N 45°32' E 020°06'1 3.3
2017-Nov-24 06:25N 45°33' E 020°06'2 2.9
2017-Nov-24 05:38N 45°35' E 020°08'0 0.2
2017-Nov-24 05:26N 45°35' E 020°08'0 0.0
2017-Nov-23 17:31N 45°35' E 020°08'0 0.0
2017-Nov-23 17:30N 45°35' E 020°08'0 0.0
2017-Nov-23 16:47N 45°35' E 020°08'0 0.0
2017-Nov-23 16:14N 45°35' E 020°08'0 0.0
2017-Nov-23 16:00N 45°35' E 020°08'0 0.0
2017-Nov-23 15:30N 45°35' E 020°08'1 2.5
2017-Nov-23 14:57N 45°36' E 020°06'  
2017-Nov-20 00:31N 44°51' E 020°37'0 0.0
2017-Nov-20 00:01N 44°51' E 020°37'0 0.0
2017-Nov-19 23:31N 44°51' E 020°37'0 0.0
2017-Nov-19 23:00N 44°51' E 020°37'0 0.3
2017-Nov-19 22:31N 44°51' E 020°37'1 2.7
2017-Nov-19 22:01N 44°50' E 020°39'1 2.4
2017-Nov-19 21:30N 44°49' E 020°38'1 2.8
2017-Nov-19 21:00N 44°47' E 020°38'1 2.5
2017-Nov-19 20:30N 44°46' E 020°38'1 2.7
2017-Nov-19 20:00N 44°45' E 020°39'4 2.7
2017-Nov-19 18:42N 44°42' E 020°42'1 2.7
2017-Nov-19 18:26N 44°42' E 020°43'10 2.5
2017-Nov-19 14:25N 44°42' E 020°57'3 2.9
2017-Nov-19 13:29N 44°43' E 021°00'5 0.2
2017-Nov-18 12:03N 44°45' E 021°06'0 0.0
2017-Nov-18 12:01N 44°45' E 021°06'0 0.2
2017-Nov-18 11:30N 44°45' E 021°07'3 2.7
2017-Nov-18 10:28N 44°43' E 021°03'3 5.7
2017-Nov-18 09:54N 44°43' E 020°59'4 2.0
2017-Nov-18 07:41N 44°40' E 020°54'1 5.7
2017-Nov-18 07:30N 44°40' E 020°53'1 2.5
2017-Nov-18 06:55N 44°39' E 020°51'6 5.0
2017-Nov-18 05:42N 44°42' E 020°43'3 5.6
2017-Nov-18 05:13N 44°44' E 020°41'1 5.5
2017-Nov-18 05:01N 44°45' E 020°39'3 5.2
2017-Nov-18 04:30N 44°47' E 020°38'1 2.2
2017-Nov-18 04:00N 44°48' E 020°38'0 0.0
2017-Nov-18 03:26N 44°48' E 020°38'0 0.0
2017-Nov-18 03:00N 44°48' E 020°38'0 0.0
2017-Nov-18 02:30N 44°48' E 020°38'0 0.0
2017-Nov-18 02:00N 44°48' E 020°38'0 0.0
2017-Nov-18 01:30N 44°48' E 020°38'0 0.0
2017-Nov-18 01:00N 44°48' E 020°38'0 0.0
2017-Nov-18 00:30N 44°48' E 020°38'0 0.0
2017-Nov-18 00:00N 44°48' E 020°38'0 0.0
2017-Nov-17 23:30N 44°48' E 020°38'0 0.0
2017-Nov-17 23:00N 44°48' E 020°38'1 1.9
2017-Nov-17 22:31N 44°49' E 020°38'3 5.3
2017-Nov-17 22:01N 44°51' E 020°37'3 5.8
2017-Nov-17 21:31N 44°51' E 020°33'3 5.6
2017-Nov-17 21:01N 44°50' E 020°30'3 5.7
2017-Nov-17 20:31N 44°51' E 020°26'3 6.0
2017-Nov-17 20:01N 44°52' E 020°22'3 5.8
2017-Nov-17 19:31N 44°55' E 020°20'3 6.2
2017-Nov-17 19:00N 44°57' E 020°18'3 5.4
2017-Nov-17 18:31N 44°60' E 020°19'3 5.6
2017-Nov-17 18:01N 45°02' E 020°22'  

Dump ship's entire track history